Time;durP1;ratioP1;P1;durP2;ratioP2;P2;SDS_P1;SDS_P2;PMS_P1;PMS_P2;Temp;Humidity;BMP_temperature;BMP_pressure;BME280_temperature;BME280_humidity;BME280_pressure;Samples;Min_cycle;Max_cycle;Signal;HPM_P1;HPM_P2
2023/10/14 00:00:31;;;;;;;9.90;7.90;;;22.80;99.90;;;;;;5019943;28;20457;-59
2023/10/14 00:03:17;;;;;;;9.60;7.80;;;22.80;99.90;;;;;;5018900;28;20465;-59
2023/10/14 00:05:45;;;;;;;8.80;7.90;;;22.80;99.90;;;;;;5015571;28;20473;-60
2023/10/14 00:08:13;;;;;;;8.17;6.90;;;22.80;99.90;;;;;;5020252;28;20454;-59
2023/10/14 00:10:40;;;;;;;8.83;7.80;;;22.80;99.90;;;;;;5017869;28;20837;-58
2023/10/14 00:13:10;;;;;;;10.97;9.07;;;22.80;99.90;;;;;;5020397;28;21013;-56
2023/10/14 00:15:39;;;;;;;10.27;7.90;;;22.80;99.90;;;;;;5018380;28;20479;-58
2023/10/14 00:18:06;;;;;;;12.83;8.50;;;22.80;99.90;;;;;;5017009;28;20464;-57
2023/10/14 00:20:34;;;;;;;10.80;8.53;;;22.80;99.90;;;;;;5015964;28;21020;-59
2023/10/14 00:23:02;;;;;;;9.13;7.60;;;22.80;99.90;;;;;;5020342;28;20462;-58
2023/10/14 00:25:32;;;;;;;9.80;7.63;;;22.80;99.90;;;;;;5017986;28;20478;-59
2023/10/14 00:28:02;;;;;;;9.73;8.80;;;22.80;99.90;;;;;;5013989;28;20457;-58
2023/10/14 00:30:31;;;;;;;10.40;8.17;;;22.80;99.90;;;;;;5017995;28;20815;-58
2023/10/14 00:32:58;;;;;;;9.30;7.33;;;22.90;99.90;;;;;;5020200;28;20466;-58
2023/10/14 00:35:26;;;;;;;11.40;8.10;;;22.80;99.90;;;;;;5018364;28;20476;-59
2023/10/14 00:37:53;;;;;;;8.37;7.17;;;22.80;99.90;;;;;;5018530;28;20864;-59
2023/10/14 00:40:23;;;;;;;8.93;8.00;;;22.80;99.90;;;;;;5018263;28;20457;-59
2023/10/14 00:42:50;;;;;;;9.00;7.27;;;22.80;99.90;;;;;;5020051;28;21207;-59
2023/10/14 00:45:20;;;;;;;8.80;6.27;;;22.80;99.90;;;;;;5015797;28;20475;-57
2023/10/14 00:47:48;;;;;;;7.70;6.90;;;22.80;99.90;;;;;;5018154;28;20463;-59
2023/10/14 00:50:33;;;;;;;7.87;7.03;;;22.80;99.90;;;;;;5017572;28;20469;-58
2023/10/14 00:53:05;;;;;;;8.50;7.60;;;22.80;99.90;;;;;;5016074;28;20461;-59
2023/10/14 00:55:45;;;;;;;8.37;7.10;;;22.80;99.90;;;;;;5015827;28;20466;-58
2023/10/14 00:58:20;;;;;;;10.27;7.97;;;22.80;99.90;;;;;;5018354;28;20500;-58
2023/10/14 01:00:56;;;;;;;10.57;7.90;;;22.80;99.90;;;;;;5018152;28;21158;-60
2023/10/14 01:03:23;;;;;;;10.13;7.97;;;22.80;99.90;;;;;;5016918;28;20457;-58
2023/10/14 01:05:50;;;;;;;7.97;7.20;;;22.80;99.90;;;;;;5014071;28;21277;-60
2023/10/14 01:08:22;;;;;;;8.47;7.53;;;22.80;99.90;;;;;;5018151;28;21190;-59
2023/10/14 01:10:50;;;;;;;9.23;7.50;;;22.80;99.90;;;;;;5016581;28;20466;-60
2023/10/14 01:13:21;;;;;;;8.60;6.93;;;22.80;99.90;;;;;;5017507;28;20611;-59
2023/10/14 01:15:51;;;;;;;8.53;6.77;;;22.70;99.90;;;;;;5016781;28;20554;-60
2023/10/14 01:18:18;;;;;;;11.83;8.00;;;22.70;99.90;;;;;;5018811;28;20465;-59
2023/10/14 01:20:46;;;;;;;7.93;7.13;;;22.70;99.90;;;;;;5016649;28;20453;-59
2023/10/14 01:23:15;;;;;;;7.57;6.33;;;22.70;99.90;;;;;;5016303;28;20544;-58
2023/10/14 01:25:47;;;;;;;9.50;7.50;;;22.70;99.90;;;;;;5018522;28;20470;-59
2023/10/14 01:28:20;;;;;;;8.50;7.70;;;22.70;99.90;;;;;;5016871;28;22501;-56
2023/10/14 01:31:10;;;;;;;7.70;7.00;;;22.70;99.90;;;;;;5014551;28;20517;-59
2023/10/14 01:33:37;;;;;;;7.47;6.83;;;22.80;99.90;;;;;;5019420;28;20471;-59
2023/10/14 01:36:05;;;;;;;9.47;7.20;;;22.70;99.90;;;;;;5018750;28;20486;-58
2023/10/14 01:38:37;;;;;;;10.80;7.30;;;22.70;99.90;;;;;;5023376;28;20462;-58
2023/10/14 01:41:05;;;;;;;8.70;6.63;;;22.70;99.90;;;;;;5022678;28;20604;-58
2023/10/14 01:43:32;;;;;;;8.50;7.60;;;22.70;99.90;;;;;;5021466;28;20450;-59
2023/10/14 01:46:08;;;;;;;7.00;6.10;;;22.70;99.90;;;;;;5020850;28;20456;-59
2023/10/14 01:48:38;;;;;;;8.77;7.47;;;22.80;99.90;;;;;;5019629;28;20465;-59
2023/10/14 01:51:05;;;;;;;7.13;6.33;;;22.70;99.90;;;;;;5017972;28;21257;-59
2023/10/14 01:53:34;;;;;;;8.17;6.37;;;22.70;99.90;;;;;;5016729;28;20462;-58
2023/10/14 01:56:03;;;;;;;7.40;6.47;;;22.70;99.90;;;;;;5017871;28;20492;-58
2023/10/14 01:58:32;;;;;;;7.90;6.63;;;22.70;99.90;;;;;;5018591;28;20491;-59
2023/10/14 02:01:04;;;;;;;6.97;6.27;;;22.70;99.90;;;;;;5019214;28;20455;-58
2023/10/14 02:03:34;;;;;;;8.67;7.37;;;22.70;99.90;;;;;;5018357;28;20473;-58
2023/10/14 02:06:04;;;;;;;8.40;6.30;;;22.70;99.90;;;;;;5017371;28;20580;-58
2023/10/14 02:08:37;;;;;;;10.20;6.13;;;22.70;99.90;;;;;;5020521;28;20475;-58
2023/10/14 02:11:05;;;;;;;6.90;5.80;;;22.70;99.90;;;;;;5021136;28;20463;-59
2023/10/14 02:13:36;;;;;;;7.87;7.17;;;22.70;99.90;;;;;;5020641;28;20465;-58
2023/10/14 02:16:07;;;;;;;10.47;7.30;;;22.70;99.90;;;;;;5021658;28;20484;-59
2023/10/14 02:18:36;;;;;;;8.13;6.43;;;22.70;99.90;;;;;;5020966;28;21088;-58
2023/10/14 02:21:11;;;;;;;6.50;5.80;;;22.70;99.90;;;;;;5019263;28;20546;-58
2023/10/14 02:23:47;;;;;;;8.40;7.37;;;22.70;99.90;;;;;;5021546;28;21499;-58
2023/10/14 02:26:24;;;;;;;6.87;5.87;;;22.70;99.90;;;;;;5022310;28;20460;-59
2023/10/14 02:28:53;;;;;;;7.40;6.40;;;22.70;99.90;;;;;;5020720;28;20458;-57
2023/10/14 02:31:29;;;;;;;7.67;6.73;;;22.70;99.90;;;;;;5019058;28;20461;-59
2023/10/14 02:33:57;;;;;;;7.40;5.80;;;22.70;99.90;;;;;;5023703;28;20467;-59
2023/10/14 02:36:28;;;;;;;6.67;5.83;;;22.70;99.90;;;;;;5020650;28;21116;-58
2023/10/14 02:38:56;;;;;;;7.17;6.47;;;22.70;99.90;;;;;;5022227;28;20458;-59
2023/10/14 02:41:29;;;;;;;8.80;6.30;;;22.60;99.90;;;;;;5022358;28;20966;-59
2023/10/14 02:44:13;;;;;;;7.30;6.17;;;22.70;99.90;;;;;;5018143;28;20458;-57
2023/10/14 02:46:42;;;;;;;7.60;6.70;;;22.70;99.90;;;;;;5019795;28;22782;-59
2023/10/14 02:49:13;;;;;;;7.27;6.57;;;22.60;99.90;;;;;;5020362;28;20458;-58
2023/10/14 02:51:42;;;;;;;7.03;6.33;;;22.60;99.90;;;;;;5018894;28;20455;-60
2023/10/14 02:54:15;;;;;;;6.60;5.80;;;22.60;99.90;;;;;;5020292;28;20464;-59
2023/10/14 02:56:56;;;;;;;7.40;6.10;;;22.60;99.90;;;;;;5017035;28;21400;-59
2023/10/14 02:59:35;;;;;;;8.30;7.27;;;22.60;99.90;;;;;;5019042;28;20458;-57
2023/10/14 03:02:14;;;;;;;6.77;5.73;;;22.60;99.90;;;;;;5020425;28;20469;-59
2023/10/14 03:04:45;;;;;;;6.67;5.80;;;22.60;99.90;;;;;;5018172;28;20466;-59
2023/10/14 03:07:21;;;;;;;7.90;6.07;;;22.60;99.90;;;;;;5019743;28;21095;-59
2023/10/14 03:09:48;;;;;;;7.27;6.47;;;22.60;99.90;;;;;;5018485;28;20449;-57
2023/10/14 03:12:18;;;;;;;5.97;5.47;;;22.60;99.90;;;;;;5016171;28;20465;-58
2023/10/14 03:14:48;;;;;;;6.17;5.50;;;22.60;99.90;;;;;;5017653;28;20457;-59
2023/10/14 03:17:21;;;;;;;5.63;5.13;;;22.60;99.90;;;;;;5017473;28;20600;-57
2023/10/14 03:19:52;;;;;;;5.43;4.93;;;22.60;99.90;;;;;;5018114;28;20462;-58
2023/10/14 03:22:22;;;;;;;6.50;5.63;;;22.60;99.90;;;;;;5019986;28;20965;-59
2023/10/14 03:24:49;;;;;;;7.27;6.00;;;22.60;99.90;;;;;;5021488;28;20451;-59
2023/10/14 03:27:17;;;;;;;6.67;6.00;;;22.60;99.90;;;;;;5020198;28;20994;-60
2023/10/14 03:29:47;;;;;;;6.40;5.80;;;22.60;99.90;;;;;;5018106;28;20463;-59
2023/10/14 03:32:16;;;;;;;6.03;5.30;;;22.60;99.90;;;;;;5016212;28;20459;-58
2023/10/14 03:34:43;;;;;;;6.20;5.37;;;22.60;99.90;;;;;;5018895;28;20524;-58
2023/10/14 03:37:21;;;;;;;6.00;5.33;;;22.60;99.90;;;;;;5019343;28;20590;-59
2023/10/14 03:40:28;;;;;;;7.03;5.83;;;22.60;99.90;;;;;;5019753;28;20498;-59
2023/10/14 03:42:35;;;;;;;6.80;6.17;;;22.60;99.90;;;;;;5020565;28;20449;-58
2023/10/14 03:45:06;;;;;;;6.00;5.40;;;22.60;99.90;;;;;;5017534;28;23042;-59
2023/10/14 03:47:34;;;;;;;6.70;5.83;;;22.60;99.90;;;;;;5018161;28;20457;-58
2023/10/14 03:50:01;;;;;;;7.30;5.70;;;22.60;99.90;;;;;;5018466;28;20747;-57
2023/10/14 03:52:28;;;;;;;9.20;6.00;;;22.60;99.90;;;;;;5018642;28;20493;-58
2023/10/14 03:54:55;;;;;;;6.73;6.00;;;22.60;99.90;;;;;;5018462;28;20834;-57
2023/10/14 03:57:33;;;;;;;6.70;5.10;;;22.60;99.90;;;;;;5017670;28;20838;-59
2023/10/14 04:00:12;;;;;;;6.80;6.10;;;22.60;99.90;;;;;;5020312;28;20453;-58
2023/10/14 04:02:40;;;;;;;5.43;4.93;;;22.60;99.90;;;;;;5020350;28;20458;-57
2023/10/14 04:05:10;;;;;;;6.93;5.77;;;22.60;99.90;;;;;;5019066;28;20466;-59
2023/10/14 04:07:41;;;;;;;6.53;5.00;;;22.60;99.90;;;;;;5019678;28;20505;-56
2023/10/14 04:10:11;;;;;;;6.20;5.60;;;22.60;99.90;;;;;;5019341;28;20496;-58
2023/10/14 04:12:40;;;;;;;5.70;4.93;;;22.60;99.90;;;;;;5018621;28;20852;-57
2023/10/14 04:15:33;;;;;;;6.40;5.70;;;22.60;99.90;;;;;;5017914;28;20508;-59
2023/10/14 04:18:00;;;;;;;6.13;5.53;;;22.60;99.90;;;;;;5019145;28;20458;-58
2023/10/14 04:20:33;;;;;;;5.87;5.33;;;22.60;99.90;;;;;;5016079;28;20465;-59
2023/10/14 04:23:05;;;;;;;5.30;4.80;;;22.60;99.90;;;;;;5018693;28;20795;-57
2023/10/14 04:25:39;;;;;;;6.30;5.57;;;22.60;99.90;;;;;;5017648;28;20476;-58
2023/10/14 04:28:30;;;;;;;6.70;5.17;;;22.60;99.90;;;;;;5018972;28;20470;-58
2023/10/14 04:31:06;;;;;;;7.57;5.20;;;22.60;99.90;;;;;;5020443;28;21985;-58
2023/10/14 04:33:45;;;;;;;6.20;5.63;;;22.60;99.90;;;;;;5020615;28;20453;-58
2023/10/14 04:39:12;;;;;;;5.87;5.10;;;22.50;99.90;;;;;;5019563;28;20473;-59
2023/10/14 04:41:46;;;;;;;5.73;5.23;;;22.60;99.90;;;;;;5018247;28;20976;-56
2023/10/14 04:44:13;;;;;;;5.70;5.10;;;22.50;99.90;;;;;;5017666;28;20462;-56
2023/10/14 04:46:54;;;;;;;6.40;5.80;;;22.50;99.90;;;;;;5016693;28;20462;-59
2023/10/14 04:49:35;;;;;;;6.03;4.83;;;22.50;99.90;;;;;;5017793;28;20463;-58
2023/10/14 04:52:04;;;;;;;6.00;5.40;;;22.50;99.90;;;;;;5019304;28;20448;-59
2023/10/14 04:54:34;;;;;;;5.37;4.87;;;22.60;99.90;;;;;;5018122;28;21064;-59
2023/10/14 04:57:19;;;;;;;5.10;4.67;;;22.50;99.90;;;;;;5018577;28;20489;-59
2023/10/14 04:59:47;;;;;;;5.83;5.27;;;22.50;99.90;;;;;;5015891;28;20456;-56
2023/10/14 05:02:20;;;;;;;5.13;4.60;;;22.50;99.90;;;;;;5018014;28;20483;-57
2023/10/14 05:04:48;;;;;;;6.10;5.27;;;22.50;99.90;;;;;;5017127;28;20497;-58
2023/10/14 05:07:15;;;;;;;5.70;5.20;;;22.50;99.90;;;;;;5018731;28;20450;-58
2023/10/14 05:09:49;;;;;;;5.70;5.10;;;22.50;99.90;;;;;;5017219;28;20920;-58
2023/10/14 05:12:24;;;;;;;5.07;4.57;;;22.50;99.90;;;;;;5018563;28;20465;-57
2023/10/14 05:14:51;;;;;;;6.17;5.50;;;22.50;99.90;;;;;;5015671;28;20546;-59
2023/10/14 05:17:25;;;;;;;5.70;5.13;;;22.60;99.90;;;;;;5015827;28;20560;-59
2023/10/14 05:19:57;;;;;;;5.90;5.30;;;22.50;99.90;;;;;;5017351;28;20497;-59
2023/10/14 05:22:26;;;;;;;6.10;5.07;;;22.60;99.90;;;;;;5017872;28;21041;-58
2023/10/14 05:24:58;;;;;;;5.23;4.83;;;22.50;99.90;;;;;;5017865;28;20466;-59
2023/10/14 05:27:35;;;;;;;5.17;4.67;;;22.50;99.90;;;;;;5018212;28;20489;-59
2023/10/14 05:30:06;;;;;;;6.23;5.00;;;22.50;99.90;;;;;;5017966;28;20684;-57
2023/10/14 05:32:36;;;;;;;4.27;3.77;;;22.50;99.90;;;;;;4999214;28;21026;-56
2023/10/14 05:35:09;;;;;;;5.27;4.80;;;22.50;99.90;;;;;;5014993;28;20951;-58
2023/10/14 05:37:36;;;;;;;6.13;5.40;;;22.50;99.90;;;;;;5016077;28;20521;-59
2023/10/14 05:40:13;;;;;;;5.43;4.47;;;22.50;99.90;;;;;;5016921;28;20474;-59
2023/10/14 05:42:43;;;;;;;5.50;4.97;;;22.50;99.90;;;;;;5015624;28;20461;-58
2023/10/14 05:45:11;;;;;;;5.07;4.67;;;22.50;99.90;;;;;;5015473;28;20454;-59
2023/10/14 05:47:42;;;;;;;5.40;4.77;;;22.50;99.90;;;;;;5018412;28;20462;-59
2023/10/14 05:50:14;;;;;;;6.70;5.10;;;22.50;99.90;;;;;;5017736;28;20585;-57
2023/10/14 05:52:43;;;;;;;4.73;4.33;;;22.50;99.90;;;;;;5017344;28;20457;-59
2023/10/14 05:55:10;;;;;;;6.13;5.33;;;22.50;99.90;;;;;;5012643;28;20470;-59
2023/10/14 05:57:39;;;;;;;5.17;4.53;;;22.50;99.90;;;;;;5017449;28;20604;-59
2023/10/14 06:00:20;;;;;;;5.23;4.73;;;22.50;99.90;;;;;;5015899;28;20457;-60
2023/10/14 06:02:50;;;;;;;6.10;5.27;;;22.50;99.90;;;;;;5018478;28;20458;-59
2023/10/14 06:05:17;;;;;;;4.83;4.43;;;22.50;99.90;;;;;;5015880;28;20455;-58
2023/10/14 06:07:46;;;;;;;4.13;3.73;;;22.50;99.90;;;;;;5017130;28;20554;-56
2023/10/14 06:10:18;;;;;;;4.73;4.23;;;22.40;99.90;;;;;;5018446;28;20470;-59
2023/10/14 06:12:44;;;;;;;5.17;4.67;;;22.50;99.90;;;;;;5016801;28;20493;-57
2023/10/14 06:15:11;;;;;;;5.00;4.50;;;22.40;99.90;;;;;;5015949;28;20985;-57
2023/10/14 06:17:39;;;;;;;4.57;4.17;;;22.50;99.90;;;;;;5018861;28;20477;-60
2023/10/14 06:20:09;;;;;;;5.10;4.70;;;22.50;99.90;;;;;;5016525;28;21077;-57
2023/10/14 06:22:36;;;;;;;5.40;5.00;;;22.50;99.90;;;;;;5018541;28;20491;-59
2023/10/14 06:25:03;;;;;;;5.10;4.60;;;22.40;99.90;;;;;;5021876;28;20577;-58
2023/10/14 06:27:32;;;;;;;5.03;4.50;;;22.40;99.90;;;;;;5023376;28;20470;-58
2023/10/14 06:29:59;;;;;;;4.83;4.33;;;22.40;99.90;;;;;;5019653;28;20458;-59
2023/10/14 06:32:26;;;;;;;4.70;4.23;;;22.40;99.90;;;;;;5020654;28;21052;-60
2023/10/14 06:34:58;;;;;;;5.33;4.20;;;22.40;99.90;;;;;;5019268;28;20458;-59
2023/10/14 06:37:27;;;;;;;4.43;4.07;;;22.40;99.90;;;;;;5019914;28;20500;-58
2023/10/14 06:39:54;;;;;;;4.40;3.90;;;22.40;99.90;;;;;;5019680;28;20496;-59
2023/10/14 06:42:22;;;;;;;4.70;4.30;;;22.40;99.90;;;;;;5018190;28;20568;-59
2023/10/14 06:44:51;;;;;;;3.90;3.60;;;22.40;99.90;;;;;;5016235;28;20453;-56
2023/10/14 06:47:21;;;;;;;5.27;4.40;;;22.40;99.90;;;;;;5014321;28;20459;-59
2023/10/14 06:49:50;;;;;;;4.93;4.47;;;22.40;99.90;;;;;;5019789;28;20966;-59
2023/10/14 06:52:18;;;;;;;5.33;4.83;;;22.50;99.90;;;;;;5018609;28;20462;-59
2023/10/14 06:54:46;;;;;;;4.83;4.40;;;22.40;99.90;;;;;;5019897;28;20461;-59
2023/10/14 06:57:14;;;;;;;5.13;4.27;;;22.40;99.90;;;;;;5022089;28;20476;-57
2023/10/14 06:59:41;;;;;;;5.97;4.97;;;22.40;99.90;;;;;;5019267;28;20457;-57
2023/10/14 07:02:10;;;;;;;5.30;4.80;;;22.40;99.90;;;;;;5019714;28;20493;-58
2023/10/14 07:04:40;;;;;;;4.70;4.30;;;22.40;99.90;;;;;;5018295;28;20471;-58
2023/10/14 07:07:09;;;;;;;4.23;3.83;;;22.40;99.90;;;;;;5021158;28;20503;-58
2023/10/14 07:09:37;;;;;;;5.97;4.03;;;22.40;99.90;;;;;;5020295;28;20545;-58
2023/10/14 07:12:13;;;;;;;3.97;3.67;;;22.40;99.90;;;;;;5020841;28;20465;-59
2023/10/14 07:14:40;;;;;;;4.67;4.27;;;22.40;99.90;;;;;;5021161;28;20462;-58
2023/10/14 07:17:07;;;;;;;5.10;4.43;;;22.40;99.90;;;;;;5020995;28;20517;-59
2023/10/14 07:19:35;;;;;;;5.13;4.50;;;22.40;99.90;;;;;;5017256;28;21009;-59
2023/10/14 07:22:07;;;;;;;4.50;4.10;;;22.40;99.90;;;;;;5021427;28;20471;-58
2023/10/14 07:24:35;;;;;;;4.13;3.80;;;22.40;99.90;;;;;;5020021;28;20888;-59
2023/10/14 07:27:02;;;;;;;4.43;4.03;;;22.40;99.90;;;;;;5019969;28;21062;-59
2023/10/14 07:29:30;;;;;;;5.00;4.30;;;22.40;99.90;;;;;;5019451;28;20488;-59
2023/10/14 07:31:57;;;;;;;5.70;4.60;;;22.40;99.90;;;;;;5021038;28;20807;-58
2023/10/14 07:34:23;;;;;;;5.07;4.53;;;22.40;99.90;;;;;;5016498;28;20454;-59
2023/10/14 07:36:51;;;;;;;4.57;4.10;;;22.40;99.90;;;;;;5018580;28;20922;-59
2023/10/14 07:39:28;;;;;;;5.10;4.07;;;22.40;99.90;;;;;;5020141;28;21071;-57
2023/10/14 07:41:55;;;;;;;4.90;4.50;;;22.40;99.90;;;;;;5019228;28;20457;-58
2023/10/14 07:44:23;;;;;;;4.73;4.33;;;22.40;99.90;;;;;;5018327;28;20458;-58
2023/10/14 07:46:53;;;;;;;4.60;4.20;;;22.30;99.90;;;;;;5018583;28;20536;-59
2023/10/14 07:49:20;;;;;;;5.50;4.80;;;22.40;99.90;;;;;;5020140;28;21063;-57
2023/10/14 07:51:47;;;;;;;5.67;4.23;;;22.40;99.90;;;;;;5021832;28;20522;-59
2023/10/14 07:54:14;;;;;;;4.53;4.13;;;22.40;99.90;;;;;;5022320;28;20485;-58
2023/10/14 07:56:43;;;;;;;4.47;4.13;;;22.30;99.90;;;;;;5017822;28;20454;-57
2023/10/14 07:59:10;;;;;;;6.23;3.93;;;22.40;99.90;;;;;;5003666;28;20470;-61
2023/10/14 08:01:38;;;;;;;4.87;4.40;;;22.40;99.90;;;;;;5015528;28;20472;-58
2023/10/14 08:04:13;;;;;;;6.00;4.03;;;22.40;99.90;;;;;;5020288;28;20559;-61
2023/10/14 08:06:41;;;;;;;5.57;3.60;;;22.40;99.90;;;;;;5015052;28;20458;-59
2023/10/14 08:09:15;;;;;;;5.47;4.97;;;22.40;99.90;;;;;;5020282;28;20461;-60
2023/10/14 08:11:42;;;;;;;4.73;4.00;;;22.40;99.90;;;;;;5016773;28;20961;-59
2023/10/14 08:14:09;;;;;;;3.80;3.47;;;22.50;99.90;;;;;;5017906;28;20462;-60
2023/10/14 08:16:37;;;;;;;5.30;4.80;;;22.50;99.90;;;;;;5020480;28;20566;-59
2023/10/14 08:19:06;;;;;;;6.00;4.03;;;22.50;99.90;;;;;;5017723;28;20469;-60
2023/10/14 08:21:36;;;;;;;4.07;3.63;;;22.60;99.90;;;;;;5017423;28;20469;-60
2023/10/14 08:24:05;;;;;;;4.73;3.73;;;22.60;99.90;;;;;;5014743;28;20469;-59
2023/10/14 08:26:32;;;;;;;5.00;3.90;;;22.60;99.90;;;;;;5017741;28;21258;-58
2023/10/14 08:29:01;;;;;;;4.37;3.97;;;22.70;99.90;;;;;;5017184;28;20461;-59
2023/10/14 08:31:28;;;;;;;4.10;3.67;;;22.70;99.90;;;;;;5020093;28;21311;-59
2023/10/14 08:33:54;;;;;;;4.50;3.83;;;22.70;99.90;;;;;;5016654;28;20461;-59
2023/10/14 08:36:21;;;;;;;4.93;3.73;;;22.70;99.90;;;;;;5018947;28;20464;-59
2023/10/14 08:38:49;;;;;;;4.43;4.03;;;22.70;99.90;;;;;;5020169;28;20498;-59
2023/10/14 08:41:16;;;;;;;3.73;3.43;;;22.70;99.90;;;;;;5019748;28;20960;-59
2023/10/14 08:43:49;;;;;;;5.90;4.03;;;22.70;99.90;;;;;;5016651;28;20465;-59
2023/10/14 08:46:18;;;;;;;4.30;3.80;;;22.70;99.90;;;;;;5017858;28;20447;-62
2023/10/14 08:48:50;;;;;;;3.80;3.40;;;22.80;99.90;;;;;;5018376;28;20521;-60
2023/10/14 08:51:18;;;;;;;3.57;3.27;;;22.80;99.90;;;;;;5019483;28;20461;-58
2023/10/14 08:53:53;;;;;;;4.50;3.53;;;22.80;99.90;;;;;;5016831;28;20831;-61
2023/10/14 08:56:22;;;;;;;3.43;3.13;;;22.80;99.90;;;;;;5015561;28;20448;-59
2023/10/14 08:58:49;;;;;;;5.10;3.73;;;22.80;99.90;;;;;;5020739;28;20834;-59
2023/10/14 09:01:19;;;;;;;3.57;3.10;;;22.80;99.90;;;;;;5018033;28;20463;-59
2023/10/14 09:03:49;;;;;;;4.70;3.33;;;22.80;99.90;;;;;;5017618;28;20465;-59
2023/10/14 09:06:17;;;;;;;5.63;5.00;;;22.80;99.90;;;;;;5019291;28;20461;-59
2023/10/14 09:08:48;;;;;;;4.50;3.50;;;22.80;99.90;;;;;;5018384;28;20549;-59
2023/10/14 09:11:28;;;;;;;5.13;3.90;;;22.80;99.90;;;;;;5017637;28;20458;-59
2023/10/14 09:14:03;;;;;;;4.33;3.93;;;22.80;99.90;;;;;;5016467;28;20470;-59
2023/10/14 09:16:32;;;;;;;3.90;3.50;;;22.80;99.90;;;;;;5016690;28;20512;-57
2023/10/14 09:19:00;;;;;;;3.40;3.10;;;22.80;99.90;;;;;;5016641;28;21038;-60
2023/10/14 09:21:27;;;;;;;4.13;3.13;;;22.80;99.90;;;;;;5017167;28;20459;-59
2023/10/14 09:23:53;;;;;;;3.67;3.23;;;22.80;99.90;;;;;;5013082;28;20492;-63
2023/10/14 09:26:21;;;;;;;6.57;3.00;;;22.80;99.90;;;;;;5018055;28;20456;-65
2023/10/14 09:28:52;;;;;;;8.73;4.07;;;22.70;99.90;;;;;;5017235;28;20476;-64
2023/10/14 09:31:19;;;;;;;7.63;2.57;;;22.70;99.90;;;;;;5010281;28;20532;-61
2023/10/14 09:33:46;;;;;;;6.17;3.27;;;22.60;99.90;;;;;;5012565;28;20463;-63
2023/10/14 09:36:15;;;;;;;5.27;2.70;;;22.60;99.90;;;;;;5016557;28;20559;-62
2023/10/14 09:38:43;;;;;;;8.60;3.60;;;22.50;99.90;;;;;;5015990;28;20850;-60
2023/10/14 09:41:12;;;;;;;6.17;2.90;;;22.50;99.90;;;;;;5014792;28;21248;-60
2023/10/14 09:43:42;;;;;;;6.77;2.70;;;22.50;99.90;;;;;;5013655;28;20552;-63
2023/10/14 09:46:12;;;;;;;7.07;3.33;;;22.50;99.90;;;;;;5011803;28;20459;-62
2023/10/14 09:48:43;;;;;;;7.73;3.70;;;22.50;99.90;;;;;;5015674;28;20497;-61
2023/10/14 09:51:12;;;;;;;7.73;3.10;;;22.50;99.90;;;;;;5014026;28;20455;-61
2023/10/14 09:53:39;;;;;;;8.80;3.07;;;22.50;99.90;;;;;;5017834;28;20470;-62
2023/10/14 09:56:08;;;;;;;8.57;2.60;;;22.50;99.90;;;;;;5016770;28;20458;-62
2023/10/14 09:58:37;;;;;;;6.80;2.23;;;22.50;99.90;;;;;;5021645;28;20493;-59
2023/10/14 10:01:05;;;;;;;7.23;3.10;;;22.50;99.90;;;;;;5017848;28;20467;-64
2023/10/14 10:03:37;;;;;;;5.27;2.60;;;22.50;99.90;;;;;;5020630;28;20818;-61
2023/10/14 10:06:17;;;;;;;12.07;3.93;;;22.50;99.90;;;;;;5019769;28;20962;-61
2023/10/14 10:09:04;;;;;;;5.47;2.00;;;22.50;99.90;;;;;;5021226;28;20468;-61
2023/10/14 10:11:33;;;;;;;6.37;3.80;;;22.50;99.90;;;;;;5021902;28;20469;-62
2023/10/14 10:14:00;;;;;;;5.30;2.40;;;22.50;99.90;;;;;;5022477;28;20466;-62
2023/10/14 10:16:31;;;;;;;4.40;2.90;;;22.50;99.90;;;;;;5022698;28;20483;-61
2023/10/14 10:19:00;;;;;;;6.63;2.37;;;22.50;99.90;;;;;;5022110;28;20501;-62
2023/10/14 10:21:29;;;;;;;5.60;3.20;;;22.50;99.90;;;;;;5020531;28;21939;-62
2023/10/14 10:24:01;;;;;;;5.10;2.27;;;22.50;99.90;;;;;;5021823;28;20461;-62
2023/10/14 10:26:28;;;;;;;6.10;3.13;;;22.50;99.90;;;;;;5019653;28;20466;-62
2023/10/14 10:28:58;;;;;;;5.30;3.30;;;22.50;99.90;;;;;;5022005;28;20466;-59
2023/10/14 10:31:25;;;;;;;6.00;3.00;;;22.50;99.90;;;;;;5021618;28;20462;-62
2023/10/14 10:33:56;;;;;;;5.73;2.77;;;22.50;99.90;;;;;;5023755;28;20465;-62
2023/10/14 10:36:27;;;;;;;9.33;2.43;;;22.50;99.90;;;;;;5019528;28;20850;-64
2023/10/14 10:38:55;;;;;;;6.20;3.07;;;22.50;99.90;;;;;;5022674;28;21069;-62
2023/10/14 10:41:25;;;;;;;4.97;3.10;;;22.50;99.90;;;;;;5017767;28;20467;-63
2023/10/14 10:43:53;;;;;;;5.03;3.20;;;22.50;99.90;;;;;;5020690;28;20457;-63
2023/10/14 10:46:30;;;;;;;4.60;2.77;;;22.60;99.90;;;;;;5020583;28;20501;-63
2023/10/14 10:48:56;;;;;;;5.87;3.33;;;22.60;99.90;;;;;;5020355;28;20533;-62
2023/10/14 10:51:29;;;;;;;5.63;3.20;;;22.60;99.90;;;;;;5020554;28;20459;-62
2023/10/14 10:53:59;;;;;;;6.30;3.40;;;22.60;99.90;;;;;;5020004;28;20486;-60
2023/10/14 10:56:28;;;;;;;6.87;3.37;;;22.70;99.90;;;;;;5020872;28;20974;-63
2023/10/14 10:58:57;;;;;;;8.43;3.37;;;22.60;99.90;;;;;;5020422;28;20675;-63
2023/10/14 11:01:24;;;;;;;5.30;3.53;;;22.60;99.90;;;;;;5019593;28;20463;-64
2023/10/14 11:03:51;;;;;;;6.03;3.40;;;22.60;99.70;;;;;;5022835;28;22501;-63
2023/10/14 11:06:19;;;;;;;7.33;3.10;;;22.60;99.70;;;;;;5019476;28;20822;-61
2023/10/14 11:08:47;;;;;;;9.33;3.43;;;22.60;99.70;;;;;;5022102;28;20991;-62
2023/10/14 11:11:14;;;;;;;7.33;3.30;;;22.60;99.90;;;;;;5021119;28;20460;-62
2023/10/14 11:13:42;;;;;;;9.53;3.37;;;22.60;99.90;;;;;;5019357;28;20461;-61
2023/10/14 11:16:12;;;;;;;4.83;2.67;;;22.60;99.80;;;;;;5016781;28;20453;-62
2023/10/14 11:18:46;;;;;;;11.23;3.97;;;22.60;99.70;;;;;;5021661;28;20506;-61
2023/10/14 11:21:14;;;;;;;7.50;3.40;;;22.60;99.90;;;;;;5019879;28;20526;-61
2023/10/14 11:23:42;;;;;;;8.20;3.50;;;22.60;99.90;;;;;;5017276;28;20597;-62
2023/10/14 11:26:15;;;;;;;10.43;3.73;;;22.60;99.90;;;;;;5016370;28;20463;-62
2023/10/14 11:28:45;;;;;;;7.30;3.67;;;22.60;99.90;;;;;;5018682;28;20469;-61
2023/10/14 11:31:12;;;;;;;8.17;3.17;;;22.60;99.90;;;;;;5017750;28;20549;-62
2023/10/14 11:33:39;;;;;;;6.60;2.90;;;22.60;99.90;;;;;;5018779;28;20467;-61
2023/10/14 11:36:07;;;;;;;11.27;3.87;;;22.70;99.90;;;;;;5019048;28;20462;-62
2023/10/14 11:38:42;;;;;;;6.50;2.60;;;22.70;99.90;;;;;;5018012;28;20688;-62
2023/10/14 11:41:12;;;;;;;6.93;2.70;;;22.70;99.50;;;;;;5017088;28;20477;-62
2023/10/14 11:43:43;;;;;;;6.67;2.80;;;22.70;99.90;;;;;;5017566;28;20467;-62
2023/10/14 11:46:10;;;;;;;6.00;3.30;;;22.70;99.90;;;;;;5011690;28;20573;-62
2023/10/14 11:48:38;;;;;;;4.83;2.83;;;22.70;99.90;;;;;;5016624;28;20556;-61
2023/10/14 11:51:11;;;;;;;4.67;2.53;;;22.70;99.90;;;;;;5020836;28;20467;-61
2023/10/14 11:53:44;;;;;;;5.33;3.20;;;22.70;99.90;;;;;;5018138;28;20458;-62
2023/10/14 11:56:14;;;;;;;7.17;2.83;;;22.70;99.90;;;;;;5018948;28;20577;-61
2023/10/14 11:58:41;;;;;;;2.27;1.80;;;22.70;99.80;;;;;;5016196;28;20483;-62
2023/10/14 12:01:09;;;;;;;6.00;2.90;;;22.70;99.90;;;;;;5018297;28;20468;-63
2023/10/14 12:03:36;;;;;;;4.73;2.50;;;22.70;99.90;;;;;;5015025;28;20464;-62
2023/10/14 12:06:03;;;;;;;4.53;2.80;;;22.70;99.90;;;;;;5017912;28;20460;-62
2023/10/14 12:08:32;;;;;;;7.87;3.50;;;22.70;99.90;;;;;;5021469;28;20472;-62
2023/10/14 12:10:59;;;;;;;7.57;2.70;;;22.70;99.90;;;;;;5012889;28;20464;-62
2023/10/14 12:13:27;;;;;;;5.27;3.10;;;22.70;99.90;;;;;;5018796;28;20503;-62
2023/10/14 12:15:54;;;;;;;5.43;2.50;;;22.70;99.90;;;;;;5017562;28;20466;-61
2023/10/14 12:18:21;;;;;;;4.63;2.70;;;22.70;99.60;;;;;;5016479;28;20483;-61
2023/10/14 12:20:49;;;;;;;3.87;2.83;;;22.70;99.40;;;;;;5017332;28;20469;-61
2023/10/14 12:23:18;;;;;;;7.40;2.37;;;22.70;99.70;;;;;;5019738;28;20466;-61
2023/10/14 12:25:46;;;;;;;6.23;2.40;;;22.70;99.40;;;;;;5017402;28;20471;-58
2023/10/14 12:28:17;;;;;;;5.33;2.13;;;22.70;99.00;;;;;;5015347;28;20462;-60
2023/10/14 12:30:46;;;;;;;5.70;2.40;;;22.70;98.70;;;;;;5017130;28;20472;-60
2023/10/14 12:33:19;;;;;;;10.67;3.60;;;22.70;98.40;;;;;;5019175;28;20472;-60
2023/10/14 12:35:46;;;;;;;3.27;2.23;;;22.70;98.40;;;;;;5017764;28;20449;-61
2023/10/14 12:38:15;;;;;;;5.13;2.20;;;22.70;98.40;;;;;;5019233;28;20575;-61
2023/10/14 12:40:43;;;;;;;5.57;1.93;;;22.70;98.40;;;;;;5017148;28;20524;-60
2023/10/14 12:43:12;;;;;;;6.33;2.17;;;22.70;98.20;;;;;;5019200;28;20727;-61
2023/10/14 12:45:39;;;;;;;3.70;2.40;;;22.70;97.50;;;;;;5015027;28;20460;-61
2023/10/14 12:48:10;;;;;;;3.53;1.77;;;22.70;97.50;;;;;;5017530;28;20453;-60
2023/10/14 12:50:40;;;;;;;4.67;2.80;;;22.70;97.50;;;;;;5016776;28;20469;-60
2023/10/14 12:53:08;;;;;;;4.63;2.27;;;22.70;97.10;;;;;;5018134;28;20466;-63
2023/10/14 12:55:35;;;;;;;6.40;2.00;;;22.60;96.70;;;;;;5021679;28;20458;-62
2023/10/14 12:58:02;;;;;;;5.60;1.90;;;22.70;95.90;;;;;;5019852;28;21070;-63
2023/10/14 13:00:30;;;;;;;3.53;1.60;;;22.60;96.20;;;;;;5018844;28;20444;-60
2023/10/14 13:02:57;;;;;;;3.97;1.70;;;22.60;95.90;;;;;;5017329;28;20991;-61